Time;durP1;ratioP1;P1;durP2;ratioP2;P2;SDS_P1;SDS_P2;PMS_P1;PMS_P2;Temp;Humidity;BMP_temperature;BMP_pressure;BME280_temperature;BME280_humidity;BME280_pressure;Samples;Min_cycle;Max_cycle;Signal;HPM_P1;HPM_P2
2021/09/08 00:00:57;;;;;;;18.83;14.97;;;;;;;18.72;58.97;96985.94;4971969;28;20493;-68
2021/09/08 00:03:23;;;;;;;22.33;14.70;;;;;;;18.75;58.72;96983.88;4971826;28;20232;-69
2021/09/08 00:05:49;;;;;;;20.20;15.57;;;;;;;18.78;58.58;96986.94;4971789;28;20277;-67
2021/09/08 00:08:14;;;;;;;21.13;15.30;;;;;;;18.75;58.69;96982.06;4972187;28;20209;-66
2021/09/08 00:10:40;;;;;;;19.70;14.67;;;;;;;18.73;58.88;96984.09;4972368;28;20547;-67
2021/09/08 00:13:06;;;;;;;20.50;15.10;;;;;;;18.76;59.02;96977.56;4972823;28;20205;-68
2021/09/08 00:15:31;;;;;;;18.10;14.30;;;;;;;18.76;58.84;96970.41;4975925;28;20244;-67
2021/09/08 00:17:57;;;;;;;22.57;14.83;;;;;;;18.77;59.09;96974.72;4975240;28;20612;-68
2021/09/08 00:20:22;;;;;;;18.40;14.33;;;;;;;18.78;58.85;96968.34;4965576;28;20210;-67
2021/09/08 00:22:48;;;;;;;18.60;14.77;;;;;;;18.76;58.85;96970.41;4971922;28;20225;-68
2021/09/08 00:25:14;;;;;;;16.53;14.10;;;;;;;18.70;58.88;96952.66;4960188;28;20178;-66
2021/09/08 00:27:39;;;;;;;18.63;13.47;;;;;;;18.70;59.04;96957.97;4967415;28;20182;-67
2021/09/08 00:30:06;;;;;;;17.60;14.00;;;;;;;18.70;59.11;96957.97;4974799;28;20513;-67
2021/09/08 00:32:32;;;;;;;16.20;13.37;;;;;;;18.70;59.09;96952.66;4966886;28;20264;-67
2021/09/08 00:34:57;;;;;;;19.93;14.97;;;;;;;18.69;59.20;96956.34;4975030;28;20516;-67
2021/09/08 00:37:23;;;;;;;17.00;13.50;;;;;;;18.70;58.94;96950.00;4970738;28;20637;-68
2021/09/08 00:39:48;;;;;;;21.27;13.80;;;;;;;18.71;58.88;96949.00;4961445;28;20179;-68
2021/09/08 00:42:15;;;;;;;19.03;14.73;;;;;;;18.69;58.85;96946.56;4975123;28;20197;-66
2021/09/08 00:44:42;;;;;;;37.57;18.17;;;;;;;18.65;58.96;96947.19;4975246;28;20189;-66
2021/09/08 00:47:11;;;;;;;18.83;13.80;;;;;;;18.64;58.76;96942.91;4974610;28;20958;-67
2021/09/08 00:49:37;;;;;;;27.13;15.90;;;;;;;18.64;58.90;96940.25;4970542;28;20410;-67
2021/09/08 00:52:04;;;;;;;17.83;14.27;;;;;;;18.60;58.88;96936.38;4965258;28;20943;-66
2021/09/08 00:54:30;;;;;;;19.93;15.07;;;;;;;18.58;58.90;96945.38;4974975;28;20254;-67
2021/09/08 00:56:57;;;;;;;18.07;13.80;;;;;;;18.42;59.22;96945.81;4973427;28;20486;-67
2021/09/08 00:59:23;;;;;;;16.53;13.73;;;;;;;18.43;59.14;96936.84;4961121;28;20181;-67
2021/09/08 01:01:49;;;;;;;17.70;14.10;;;;;;;18.29;59.35;96936.06;4972977;28;20445;-67
2021/09/08 01:04:14;;;;;;;17.23;13.67;;;;;;;18.01;60.53;96944.28;4963420;28;20511;-67
2021/09/08 01:06:41;;;;;;;20.93;13.97;;;;;;;17.85;60.94;96930.41;4970198;28;20279;-66
2021/09/08 01:09:07;;;;;;;19.90;14.47;;;;;;;17.68;61.65;96940.63;4965077;28;20213;-67
2021/09/08 01:11:35;;;;;;;19.67;15.90;;;;;;;17.74;61.60;96942.44;4974553;28;20468;-67
2021/09/08 01:14:01;;;;;;;26.20;15.70;;;;;;;17.81;61.47;96934.47;4973349;28;20421;-67
2021/09/08 01:16:27;;;;;;;18.10;15.07;;;;;;;17.85;61.46;96940.19;4974271;28;20425;-69
2021/09/08 01:18:53;;;;;;;21.50;16.67;;;;;;;17.80;61.44;96933.69;4973724;28;20272;-67
2021/09/08 01:21:19;;;;;;;18.70;15.27;;;;;;;17.63;62.00;96933.28;4960411;28;20202;-67
2021/09/08 01:23:45;;;;;;;24.47;14.80;;;;;;;17.62;62.19;96931.66;4974568;28;20444;-67
2021/09/08 01:26:11;;;;;;;19.83;14.93;;;;;;;17.72;61.90;96931.22;4957449;28;20417;-66
2021/09/08 01:28:36;;;;;;;22.53;15.73;;;;;;;17.68;61.83;96929.19;4974190;28;20185;-66
2021/09/08 01:31:03;;;;;;;18.63;15.17;;;;;;;17.84;61.32;96930.59;4973403;28;20449;-66
2021/09/08 01:33:29;;;;;;;19.90;15.70;;;;;;;17.88;60.90;96930.00;4973892;28;20177;-66
2021/09/08 01:35:54;;;;;;;17.40;15.00;;;;;;;17.90;60.78;96930.59;4974061;28;20421;-67
2021/09/08 01:38:20;;;;;;;16.17;14.10;;;;;;;17.92;60.79;96928.56;4966718;28;20652;-66
2021/09/08 01:40:45;;;;;;;20.03;14.90;;;;;;;17.92;60.80;96933.84;4974119;28;20178;-67
2021/09/08 01:43:11;;;;;;;16.20;13.60;;;;;;;17.88;60.73;96927.34;4973688;28;20563;-68
2021/09/08 01:45:44;;;;;;;16.60;14.50;;;;;;;17.91;60.74;96926.13;4974005;28;20664;-68
2021/09/08 01:48:10;;;;;;;19.40;15.90;;;;;;;17.88;60.83;96927.34;4973140;28;20178;-67
2021/09/08 01:50:35;;;;;;;26.73;15.00;;;;;;;17.86;61.17;96928.56;4962505;28;20437;-67
2021/09/08 01:53:01;;;;;;;23.40;16.30;;;;;;;17.74;61.17;96918.59;4971477;28;20688;-68
2021/09/08 01:55:26;;;;;;;26.83;15.60;;;;;;;17.77;61.12;96914.69;4973649;28;20178;-67
2021/09/08 01:57:52;;;;;;;19.87;15.47;;;;;;;17.55;61.80;96909.63;4956796;28;20244;-67
2021/09/08 02:00:17;;;;;;;20.07;15.17;;;;;;;17.45;61.96;96914.53;4973474;28;20189;-67
2021/09/08 02:02:43;;;;;;;22.20;15.47;;;;;;;17.37;62.26;96922.69;4973281;28;20194;-67
2021/09/08 02:05:10;;;;;;;19.13;15.40;;;;;;;17.40;62.46;96914.28;4971985;28;20224;-67
2021/09/08 02:07:36;;;;;;;20.23;15.27;;;;;;;17.50;61.81;96917.38;4973203;28;20328;-67
2021/09/08 02:10:03;;;;;;;19.20;15.43;;;;;;;17.54;61.37;96918.59;4971979;28;20512;-68
2021/09/08 02:12:28;;;;;;;19.30;15.33;;;;;;;17.52;61.85;96917.16;4971906;28;20209;-67
2021/09/08 02:14:54;;;;;;;16.70;14.40;;;;;;;17.54;61.53;96913.28;4973330;28;20428;-69
2021/09/08 02:17:19;;;;;;;25.80;16.80;;;;;;;17.48;61.76;96914.13;4972844;28;20636;-67
2021/09/08 02:19:45;;;;;;;21.00;14.97;;;;;;;17.50;61.82;96909.44;4965331;28;20178;-68
2021/09/08 02:22:11;;;;;;;18.07;13.93;;;;;;;17.54;61.50;96910.63;4950075;28;20204;-68
2021/09/08 02:24:36;;;;;;;18.60;14.40;;;;;;;17.55;61.45;96909.63;4973222;28;20265;-68
2021/09/08 02:27:02;;;;;;;20.50;14.13;;;;;;;17.52;61.36;96907.38;4972991;28;20248;-67
2021/09/08 02:29:27;;;;;;;17.57;13.93;;;;;;;17.54;61.69;96904.53;4972396;28;20189;-67
2021/09/08 02:31:53;;;;;;;22.17;15.00;;;;;;;17.37;61.77;96902.28;4959672;28;20214;-67
2021/09/08 02:34:19;;;;;;;18.80;13.97;;;;;;;17.47;61.79;96901.88;4955957;28;20185;-68
2021/09/08 02:36:44;;;;;;;18.03;14.63;;;;;;;17.47;61.49;96901.88;4964195;28;20220;-68
2021/09/08 02:39:10;;;;;;;20.17;16.00;;;;;;;17.47;61.49;96901.88;4965167;28;20182;-68
2021/09/08 02:41:35;;;;;;;22.80;14.60;;;;;;;17.46;61.64;96894.97;4964594;28;20197;-67
2021/09/08 02:44:01;;;;;;;18.73;14.90;;;;;;;17.47;61.68;96896.59;4972382;28;20182;-66
2021/09/08 02:46:27;;;;;;;17.20;14.70;;;;;;;17.44;61.51;96891.69;4972300;28;20236;-68
2021/09/08 02:48:52;;;;;;;25.93;14.47;;;;;;;17.44;61.25;96891.69;4972316;28;20194;-68
2021/09/08 02:51:18;;;;;;;21.30;15.50;;;;;;;17.43;61.19;96890.06;4958963;28;20197;-69
2021/09/08 02:53:44;;;;;;;20.53;14.60;;;;;;;17.40;61.36;96891.28;4972366;28;20625;-67
2021/09/08 02:56:09;;;;;;;18.53;14.73;;;;;;;17.33;61.47;96880.69;4972461;28;20178;-68
2021/09/08 02:58:35;;;;;;;25.77;17.93;;;;;;;17.29;61.94;96887.41;4965332;28;20201;-68
2021/09/08 03:01:01;;;;;;;27.00;16.33;;;;;;;17.26;61.80;96882.53;4972076;28;20292;-68
2021/09/08 03:03:26;;;;;;;18.53;15.43;;;;;;;17.24;61.53;96881.91;4972507;28;20911;-68
2021/09/08 03:05:52;;;;;;;23.70;14.77;;;;;;;17.15;61.75;96880.47;4964459;28;20706;-67
2021/09/08 03:08:18;;;;;;;19.00;15.57;;;;;;;17.19;61.53;96881.69;4967089;28;20174;-67
2021/09/08 03:10:44;;;;;;;21.20;15.20;;;;;;;17.17;61.20;96871.31;4960152;28;20190;-67
2021/09/08 03:13:11;;;;;;;17.57;14.83;;;;;;;17.17;61.33;96876.63;4972176;28;20457;-68
2021/09/08 03:15:37;;;;;;;18.53;14.83;;;;;;;17.14;61.30;96871.72;4964082;28;20417;-67
2021/09/08 03:18:04;;;;;;;17.83;14.83;;;;;;;17.15;61.53;96873.34;4972154;28;20507;-67
2021/09/08 03:20:29;;;;;;;18.03;15.23;;;;;;;17.14;61.54;96869.06;4960742;28;20437;-67
2021/09/08 03:22:55;;;;;;;19.33;15.70;;;;;;;17.08;62.08;96869.06;4969917;28;20907;-68
2021/09/08 03:25:20;;;;;;;19.50;16.20;;;;;;;17.13;62.03;96871.94;4972262;28;20177;-68
2021/09/08 03:27:46;;;;;;;20.50;15.03;;;;;;;17.14;61.86;96865.59;4971902;28;20652;-68
2021/09/08 03:30:12;;;;;;;18.73;15.70;;;;;;;17.09;61.71;96865.41;4971447;28;20186;-68
2021/09/08 03:32:37;;;;;;;24.40;16.60;;;;;;;17.03;61.66;96865.19;4964107;28;20217;-68
2021/09/08 03:35:03;;;;;;;22.40;17.60;;;;;;;16.93;62.69;96869.22;4971871;28;20185;-67
2021/09/08 03:37:29;;;;;;;22.30;17.23;;;;;;;17.01;62.37;96863.75;4966718;28;20187;-67
2021/09/08 03:39:56;;;;;;;23.30;16.73;;;;;;;16.95;62.46;96856.63;4961112;28;20424;-68
2021/09/08 03:42:22;;;;;;;24.77;18.20;;;;;;;16.91;62.69;96858.81;4962057;28;20298;-67
2021/09/08 03:44:48;;;;;;;20.33;16.87;;;;;;;16.93;62.42;96862.09;4971815;28;20436;-67
2021/09/08 03:47:13;;;;;;;23.77;17.63;;;;;;;16.82;62.67;96858.19;4955569;28;20433;-68
2021/09/08 03:49:39;;;;;;;22.30;17.60;;;;;;;16.74;62.97;96853.91;4970577;28;20245;-67
2021/09/08 03:52:05;;;;;;;21.53;16.90;;;;;;;16.67;63.19;96857.56;4974202;28;20515;-67
2021/09/08 03:54:30;;;;;;;25.13;17.97;;;;;;;16.60;63.73;96857.53;4975222;28;20305;-67
2021/09/08 03:56:56;;;;;;;24.40;17.33;;;;;;;16.74;63.16;96855.75;4975453;28;20592;-67
2021/09/08 03:59:22;;;;;;;24.93;18.37;;;;;;;16.72;63.18;96852.47;4968509;28;20178;-68
2021/09/08 04:01:48;;;;;;;22.47;17.70;;;;;;;16.73;63.00;96848.81;4965974;28;20703;-67
2021/09/08 04:04:14;;;;;;;64.13;26.10;;;;;;;16.65;63.12;96849.81;4960067;28;20503;-67
2021/09/08 04:06:41;;;;;;;27.33;18.70;;;;;;;16.65;63.19;96841.88;4975853;28;20509;-67
2021/09/08 04:09:06;;;;;;;29.50;19.33;;;;;;;16.63;63.32;96838.63;4975427;28;20449;-67
2021/09/08 04:11:32;;;;;;;25.60;17.90;;;;;;;16.69;62.96;96850.25;4967754;28;20470;-69
2021/09/08 04:13:58;;;;;;;24.37;19.03;;;;;;;16.55;63.47;96846.72;4973858;28;20196;-70
2021/09/08 04:16:23;;;;;;;26.30;18.87;;;;;;;16.50;63.97;96839.41;4976905;28;20181;-68
2021/09/08 04:18:49;;;;;;;22.30;18.00;;;;;;;16.58;63.34;96838.41;4970313;28;20274;-68
2021/09/08 04:21:15;;;;;;;23.17;18.33;;;;;;;16.45;64.21;96839.16;4975803;28;20189;-67
2021/09/08 04:23:40;;;;;;;23.03;18.60;;;;;;;16.40;64.43;96833.69;4966236;28;20189;-67
2021/09/08 04:26:06;;;;;;;39.47;23.10;;;;;;;16.44;64.26;96840.22;4975885;28;20189;-68
2021/09/08 04:28:31;;;;;;;29.10;19.50;;;;;;;16.50;63.75;96834.09;4975750;28;20182;-68
2021/09/08 04:30:57;;;;;;;32.30;22.53;;;;;;;16.49;63.50;96842.25;4974618;28;20582;-68
2021/09/08 04:33:22;;;;;;;28.93;20.17;;;;;;;16.48;63.84;96835.31;4975697;28;20201;-68
2021/09/08 04:35:48;;;;;;;29.80;19.47;;;;;;;16.50;63.72;96834.09;4975254;28;20256;-67
2021/09/08 04:38:14;;;;;;;23.97;18.47;;;;;;;16.54;63.33;96834.53;4958676;28;20617;-65
2021/09/08 04:40:39;;;;;;;26.07;19.33;;;;;;;16.52;63.29;96837.38;4972639;28;20229;-68
2021/09/08 04:43:05;;;;;;;30.13;19.80;;;;;;;16.48;63.42;96837.97;4987388;28;20178;-67
2021/09/08 04:45:31;;;;;;;31.03;20.00;;;;;;;16.47;63.54;96833.69;4989654;28;20184;-68
2021/09/08 04:47:56;;;;;;;27.23;19.27;;;;;;;16.50;63.69;96835.94;4978688;28;20265;-68
2021/09/08 04:50:22;;;;;;;26.40;18.70;;;;;;;16.51;63.30;96835.75;4969360;28;20174;-69
2021/09/08 04:52:47;;;;;;;28.07;19.90;;;;;;;16.42;63.39;96839.59;4974384;28;20209;-68
2021/09/08 04:55:13;;;;;;;24.97;19.20;;;;;;;16.38;63.84;96833.84;4975521;28;20182;-67
2021/09/08 04:57:39;;;;;;;24.10;17.50;;;;;;;16.39;63.52;96832.03;4969648;28;20245;-69
2021/09/08 05:00:05;;;;;;;25.90;18.80;;;;;;;16.32;63.83;96832.03;4966624;28;20536;-68
2021/09/08 05:02:31;;;;;;;23.30;19.30;;;;;;;16.41;63.54;96835.31;4974938;28;20201;-67
2021/09/08 05:04:56;;;;;;;29.40;20.70;;;;;;;16.19;64.12;96830.13;4974584;28;20925;-66
2021/09/08 05:07:22;;;;;;;28.00;19.83;;;;;;;16.35;64.00;96842.22;4974235;28;20173;-67
2021/09/08 05:09:48;;;;;;;29.67;19.07;;;;;;;16.28;63.63;96831.59;4969754;28;20181;-66
2021/09/08 05:12:13;;;;;;;28.80;21.97;;;;;;;16.19;64.43;96832.75;4968143;28;20213;-67
2021/09/08 05:14:39;;;;;;;30.00;20.00;;;;;;;16.27;64.30;96839.72;4974805;28;20551;-66
2021/09/08 05:17:05;;;;;;;26.03;19.67;;;;;;;16.33;63.93;96833.66;4974132;28;20658;-68
2021/09/08 05:19:32;;;;;;;26.90;19.07;;;;;;;16.41;63.82;96844.03;4964184;28;20184;-68
2021/09/08 05:21:58;;;;;;;24.60;19.50;;;;;;;16.41;64.10;96844.03;4967894;28;20533;-69
2021/09/08 05:24:24;;;;;;;26.30;20.03;;;;;;;16.50;63.58;96831.47;4974699;28;21141;-68
2021/09/08 05:26:49;;;;;;;25.80;19.67;;;;;;;16.54;63.27;96845.09;4974366;28;20508;-69
2021/09/08 05:29:16;;;;;;;26.13;18.87;;;;;;;16.68;62.99;96838.03;4967136;28;20193;-68
2021/09/08 05:31:42;;;;;;;26.50;19.50;;;;;;;16.77;62.57;96843.94;4973998;28;20284;-68
2021/09/08 05:34:08;;;;;;;28.20;18.20;;;;;;;16.87;62.24;96839.88;4966626;28;20434;-68
2021/09/08 05:36:33;;;;;;;25.13;17.93;;;;;;;16.97;61.89;96844.81;4974072;28;20483;-67
2021/09/08 05:38:59;;;;;;;27.53;19.43;;;;;;;17.07;61.73;96830.38;4967024;28;20182;-68
2021/09/08 05:41:24;;;;;;;27.13;19.73;;;;;;;17.18;61.52;96838.53;4963713;28;20193;-69
2021/09/08 05:43:50;;;;;;;24.70;19.20;;;;;;;17.29;61.26;96839.75;4973941;28;20277;-68
2021/09/08 05:46:16;;;;;;;26.73;18.50;;;;;;;17.44;61.14;96838.72;4970634;28;20181;-68
2021/09/08 05:48:41;;;;;;;27.37;18.23;;;;;;;17.62;60.73;96830.97;4969699;28;20233;-69
2021/09/08 05:51:07;;;;;;;29.07;17.83;;;;;;;17.79;60.14;96830.50;4959454;28;20203;-68
2021/09/08 05:53:32;;;;;;;22.57;17.20;;;;;;;17.94;59.60;96828.44;4974110;28;20181;-67
2021/09/08 05:55:58;;;;;;;23.43;16.47;;;;;;;18.08;59.08;96829.22;4973803;28;20532;-68
2021/09/08 05:58:24;;;;;;;20.77;16.43;;;;;;;18.19;58.65;96835.72;4967168;28;20178;-68
2021/09/08 06:00:50;;;;;;;25.97;17.40;;;;;;;18.35;58.18;96833.63;4973230;28;20205;-69
2021/09/08 06:03:16;;;;;;;19.43;16.10;;;;;;;18.49;57.78;96829.88;4952688;28;20448;-67
2021/09/08 06:06:19;;;;;;;29.90;17.77;;;;;;;18.66;57.17;96838.16;4950278;28;21003;-69
2021/09/08 06:09:25;;;;;;;27.50;16.43;;;;;;;18.90;56.93;96835.78;4934381;29;20449;-69
2021/09/08 06:12:31;;;;;;;39.03;20.30;;;;;;;19.38;55.53;96829.09;4931958;28;20454;-70
2021/09/08 06:15:37;;;;;;;39.67;20.00;;;;;;;20.10;54.14;96831.28;4932976;28;20414;-71
2021/09/08 06:18:43;;;;;;;36.10;18.93;;;;;;;20.93;51.79;96830.81;4931198;29;20998;-71
2021/09/08 06:21:49;;;;;;;38.30;18.73;;;;;;;21.74;49.83;96825.00;4931428;29;20464;-69
2021/09/08 06:24:55;;;;;;;66.00;25.03;;;;;;;22.66;47.21;96824.47;4930325;28;20418;-69
2021/09/08 06:28:02;;;;;;;31.27;17.13;;;;;;;23.45;44.39;96820.19;4932710;28;20514;-70
2021/09/08 06:31:10;;;;;;;32.23;17.70;;;;;;;24.37;42.21;96815.25;4931555;28;20469;-68
2021/09/08 06:34:16;;;;;;;26.80;14.80;;;;;;;24.43;40.83;96810.75;4932143;28;20823;-70
2021/09/08 06:37:22;;;;;;;21.50;13.30;;;;;;;24.01;41.31;96805.97;4930656;29;20474;-70
2021/09/08 06:40:28;;;;;;;20.87;13.20;;;;;;;23.68;41.86;96819.19;4930902;28;20442;-71
2021/09/08 06:43:34;;;;;;;28.33;13.30;;;;;;;23.46;42.12;96816.44;4931342;29;20418;-70
2021/09/08 06:46:40;;;;;;;26.23;12.70;;;;;;;23.19;42.28;96816.28;4932428;29;21122;-72
2021/09/08 06:49:47;;;;;;;17.20;12.50;;;;;;;23.02;43.10;96817.88;4937659;28;20453;-71
2021/09/08 06:52:53;;;;;;;18.00;11.80;;;;;;;22.78;43.48;96817.22;4949426;28;20457;-70
2021/09/08 06:56:00;;;;;;;14.00;10.60;;;;;;;22.90;43.35;96811.00;4951443;28;20432;-72
2021/09/08 06:59:06;;;;;;;16.97;11.77;;;;;;;22.42;43.48;96807.72;4933179;28;20476;-71
2021/09/08 07:02:12;;;;;;;13.53;9.93;;;;;;;22.33;43.34;96799.25;4931782;28;21257;-71
2021/09/08 07:05:20;;;;;;;11.23;9.57;;;;;;;22.02;42.93;96801.31;4931247;29;21146;-70
2021/09/08 07:08:26;;;;;;;12.27;9.63;;;;;;;21.82;43.13;96802.50;4930555;29;20422;-71
2021/09/08 07:11:33;;;;;;;15.43;10.27;;;;;;;22.01;42.79;96794.38;4935585;28;20462;-68
2021/09/08 07:13:58;;;;;;;16.00;9.63;;;;;;;21.88;42.69;96793.59;4945990;28;20453;-67
2021/09/08 07:16:24;;;;;;;12.70;9.23;;;;;;;21.86;42.35;96802.88;4967799;28;20236;-68
2021/09/08 07:18:49;;;;;;;12.47;9.67;;;;;;;22.29;41.93;96788.25;4953488;28;20214;-68
2021/09/08 07:21:15;;;;;;;14.03;9.50;;;;;;;22.38;41.09;96791.34;4971726;28;20704;-67
2021/09/08 07:23:40;;;;;;;8.80;7.90;;;;;;;22.47;41.15;96789.94;4963439;28;20212;-68
2021/09/08 07:26:06;;;;;;;12.60;9.23;;;;;;;22.42;40.96;96795.19;4974505;28;20603;-68
2021/09/08 07:28:31;;;;;;;13.10;9.50;;;;;;;22.88;40.46;96789.03;4976056;28;20181;-68
2021/09/08 07:30:57;;;;;;;11.90;9.07;;;;;;;23.03;40.96;96802.66;4967914;28;20217;-68
2021/09/08 07:33:24;;;;;;;10.50;9.40;;;;;;;23.44;40.23;96787.25;4976258;28;20275;-68
2021/09/08 07:35:50;;;;;;;11.30;9.00;;;;;;;23.50;39.50;96785.50;4968659;28;20213;-67
2021/09/08 07:38:17;;;;;;;17.37;8.90;;;;;;;23.17;40.45;96790.59;4969018;28;20469;-68
2021/09/08 07:40:43;;;;;;;14.50;9.57;;;;;;;23.30;40.29;96794.03;4967914;28;20422;-70
2021/09/08 07:43:09;;;;;;;11.37;8.20;;;;;;;23.52;39.09;96790.59;4967252;28;20807;-69
2021/09/08 07:45:35;;;;;;;8.93;8.00;;;;;;;23.57;39.48;96787.97;4975612;28;20440;-68
2021/09/08 07:48:00;;;;;;;11.50;8.47;;;;;;;23.55;39.51;96782.09;4975491;28;20182;-67
2021/09/08 07:50:26;;;;;;;11.07;8.87;;;;;;;23.73;39.21;96789.81;4976133;28;20208;-67
2021/09/08 07:52:51;;;;;;;10.53;8.83;;;;;;;23.56;39.09;96783.72;4975695;28;20221;-68
2021/09/08 07:55:17;;;;;;;9.13;8.03;;;;;;;23.86;39.15;96787.81;4975085;28;20646;-67
2021/09/08 07:57:42;;;;;;;11.63;8.53;;;;;;;23.33;39.11;96785.50;4970267;28;20179;-67
2021/09/08 08:00:10;;;;;;;17.13;9.07;;;;;;;23.71;39.49;96786.56;4960344;28;20186;-67
2021/09/08 08:02:46;;;;;;;12.97;8.63;;;;;;;24.06;39.06;96781.94;4969357;28;21008;-67
2021/09/08 08:05:12;;;;;;;11.93;8.30;;;;;;;24.14;38.86;96786.84;4971868;28;20441;-67
2021/09/08 08:07:38;;;;;;;13.40;8.70;;;;;;;23.98;38.92;96780.53;4970890;28;20440;-68
2021/09/08 08:10:05;;;;;;;12.20;8.87;;;;;;;24.10;37.70;96771.56;4975930;28;20896;-67
2021/09/08 08:12:31;;;;;;;16.10;9.20;;;;;;;23.93;38.47;96778.56;4970575;28;20614;-67
2021/09/08 08:14:56;;;;;;;11.93;8.60;;;;;;;24.11;38.59;96774.00;4970128;28;20440;-68
2021/09/08 08:17:22;;;;;;;10.63;7.80;;;;;;;24.14;38.03;96767.31;4968206;28;20277;-66
2021/09/08 08:19:48;;;;;;;22.13;8.03;;;;;;;24.41;37.55;96778.06;4976197;28;20564;-67
2021/09/08 08:22:14;;;;;;;9.10;8.00;;;;;;;24.56;37.77;96779.28;4968255;28;20331;-67
2021/09/08 08:24:40;;;;;;;11.20;8.67;;;;;;;24.83;37.63;96776.59;4975865;28;20181;-67
2021/09/08 08:27:06;;;;;;;12.87;8.43;;;;;;;24.71;36.87;96779.47;4975777;28;20940;-68
2021/09/08 08:29:32;;;;;;;10.17;7.80;;;;;;;24.53;37.57;96775.25;4975372;28;20202;-67
2021/09/08 08:31:57;;;;;;;12.23;8.60;;;;;;;24.69;37.48;96773.53;4975743;28;20217;-68
2021/09/08 08:34:23;;;;;;;9.60;7.93;;;;;;;24.67;36.73;96772.94;4976172;28;20186;-67
2021/09/08 08:36:50;;;;;;;11.43;7.97;;;;;;;24.96;36.92;96778.84;4975052;28;20264;-67
2021/09/08 08:39:16;;;;;;;11.67;8.17;;;;;;;25.08;36.09;96770.66;4969673;28;20418;-66
2021/09/08 08:41:42;;;;;;;12.30;7.70;;;;;;;25.05;36.68;96776.50;4976847;28;20822;-67
2021/09/08 08:44:08;;;;;;;8.97;7.97;;;;;;;24.97;36.12;96769.75;4982660;28;20178;-67
2021/09/08 08:46:34;;;;;;;8.50;7.60;;;;;;;25.20;35.61;96773.16;4979159;28;20167;-66
2021/09/08 08:49:00;;;;;;;10.40;8.20;;;;;;;25.38;35.71;96765.75;4983781;28;20492;-66
2021/09/08 08:51:26;;;;;;;10.60;7.03;;;;;;;25.36;35.18;96770.56;4980522;28;20214;-69
2021/09/08 08:53:52;;;;;;;8.50;6.93;;;;;;;24.86;36.49;96778.78;4990650;28;20186;-67
2021/09/08 08:56:17;;;;;;;12.13;7.90;;;;;;;25.06;36.03;96770.09;4992665;28;20209;-68
2021/09/08 08:58:43;;;;;;;9.80;8.13;;;;;;;25.00;36.32;96771.13;4984909;28;20169;-69
2021/09/08 09:01:15;;;;;;;18.50;8.40;;;;;;;24.94;36.04;96767.59;4977643;28;20300;-68
2021/09/08 09:03:40;;;;;;;9.43;7.70;;;;;;;25.21;35.75;96769.41;4975702;28;20276;-66
2021/09/08 09:06:06;;;;;;;11.83;7.70;;;;;;;25.56;35.34;96764.56;4972630;28;20435;-67
2021/09/08 09:08:33;;;;;;;9.50;7.57;;;;;;;25.81;34.41;96752.34;4967662;28;20201;-67
2021/09/08 09:10:59;;;;;;;8.60;7.67;;;;;;;25.89;34.40;96749.97;4973405;28;20233;-69
2021/09/08 09:13:31;;;;;;;9.87;7.77;;;;;;;25.94;34.08;96756.44;4967816;28;20519;-67
2021/09/08 09:16:07;;;;;;;10.37;8.23;;;;;;;25.29;35.12;96754.69;4972701;28;20217;-67
2021/09/08 09:18:44;;;;;;;9.17;8.13;;;;;;;25.40;35.30;96753.69;4969050;28;20434;-68
2021/09/08 09:21:14;;;;;;;11.40;7.43;;;;;;;25.79;34.12;96744.56;4963454;28;20436;-69
2021/09/08 09:23:47;;;;;;;8.60;7.50;;;;;;;25.99;34.16;96743.00;4970189;28;20792;-69
2021/09/08 09:26:20;;;;;;;8.13;7.30;;;;;;;25.76;34.83;96737.84;4974487;28;20541;-70
2021/09/08 09:28:45;;;;;;;9.60;7.23;;;;;;;26.13;34.75;96733.41;4974217;28;20457;-69
2021/09/08 09:31:21;;;;;;;8.67;7.20;;;;;;;26.46;34.08;96735.91;4973332;28;20956;-66
2021/09/08 09:33:56;;;;;;;8.93;8.03;;;;;;;26.67;33.81;96734.84;4973713;28;20665;-68
2021/09/08 09:36:28;;;;;;;10.33;7.70;;;;;;;26.74;34.09;96733.78;4973932;28;20432;-67
2021/09/08 09:38:54;;;;;;;8.07;7.27;;;;;;;26.63;34.01;96730.28;4966744;28;20432;-68
2021/09/08 09:41:33;;;;;;;15.70;7.53;;;;;;;26.72;34.38;96728.66;4974117;28;20526;-68
2021/09/08 09:44:06;;;;;;;10.33;8.17;;;;;;;26.57;34.51;96732.16;4965584;28;20479;-67
2021/09/08 09:46:32;;;;;;;9.33;8.23;;;;;;;26.63;34.52;96723.03;4972858;28;20420;-66
2021/09/08 09:49:01;;;;;;;10.40;8.20;;;;;;;26.47;34.89;96729.47;4973112;28;20830;-68
2021/09/08 09:51:26;;;;;;;13.87;8.33;;;;;;;26.67;34.62;96728.69;4973376;28;20581;-68
2021/09/08 09:53:52;;;;;;;13.33;8.23;;;;;;;26.80;34.54;96722.81;4974005;28;20578;-66
2021/09/08 09:56:17;;;;;;;9.67;7.97;;;;;;;26.79;34.30;96721.19;4973946;28;20268;-70
2021/09/08 09:58:43;;;;;;;10.40;8.33;;;;;;;26.97;33.96;96719.84;4967562;28;20277;-65
2021/09/08 10:01:09;;;;;;;14.40;7.83;;;;;;;26.52;34.93;96719.53;4969332;28;20218;-67
2021/09/08 10:03:34;;;;;;;11.50;8.20;;;;;;;26.40;35.47;96708.25;4962264;28;20205;-68
2021/09/08 10:06:01;;;;;;;9.27;7.50;;;;;;;27.14;34.24;96706.09;4974585;28;20194;-69
2021/09/08 10:08:29;;;;;;;7.73;7.03;;;;;;;26.94;34.79;96703.44;4967421;28;20190;-69
2021/09/08 10:10:57;;;;;;;8.93;7.47;;;;;;;27.37;34.04;96709.28;4973877;28;20429;-68
2021/09/08 10:13:27;;;;;;;10.07;7.90;;;;;;;27.42;34.25;96700.38;4965531;28;20516;-69
2021/09/08 10:15:53;;;;;;;10.80;8.13;;;;;;;27.20;35.17;96693.44;4952908;28;20488;-68
2021/09/08 10:18:22;;;;;;;9.47;6.97;;;;;;;27.86;33.93;96693.50;4973025;28;20827;-68
2021/09/08 10:20:53;;;;;;;9.37;7.60;;;;;;;27.43;34.58;96681.28;4972894;28;20465;-68
2021/09/08 10:23:18;;;;;;;9.80;7.87;;;;;;;27.30;34.67;96689.94;4960426;28;20928;-67
2021/09/08 10:25:48;;;;;;;8.13;7.33;;;;;;;27.46;34.78;96679.16;4972739;28;20432;-67
2021/09/08 10:28:15;;;;;;;11.80;7.60;;;;;;;27.62;34.09;96672.63;4967280;28;20222;-69
2021/09/08 10:30:42;;;;;;;9.40;7.63;;;;;;;27.55;34.25;96669.44;4972735;28;20936;-69
2021/09/08 10:33:08;;;;;;;8.70;7.90;;;;;;;28.21;33.67;96667.50;4972480;28;20457;-67
2021/09/08 10:35:38;;;;;;;11.10;7.63;;;;;;;27.87;33.83;96668.19;4972403;28;20758;-67
2021/09/08 10:38:11;;;;;;;9.30;8.07;;;;;;;28.09;33.42;96658.97;4965034;28;20213;-69
2021/09/08 10:40:36;;;;;;;8.83;7.93;;;;;;;28.02;33.37;96660.03;4971421;28;20809;-68
2021/09/08 10:43:03;;;;;;;8.30;7.13;;;;;;;28.10;33.35;96655.19;4964785;28;20450;-69
2021/09/08 10:45:31;;;;;;;11.53;7.50;;;;;;;28.03;33.64;96656.28;4972673;28;20540;-68
2021/09/08 10:48:02;;;;;;;8.30;7.50;;;;;;;28.01;33.50;96655.75;4972271;28;20437;-67
2021/09/08 10:50:48;;;;;;;11.70;7.10;;;;;;;28.67;32.58;96648.28;4971456;28;20770;-67
2021/09/08 10:53:19;;;;;;;9.30;8.23;;;;;;;28.60;33.09;96650.50;4954951;28;20882;-67
2021/09/08 10:55:46;;;;;;;9.03;7.10;;;;;;;28.86;32.72;96647.59;4972183;28;20434;-67
2021/09/08 10:58:12;;;;;;;8.83;7.80;;;;;;;28.77;32.57;96652.00;4976603;28;20425;-67
2021/09/08 11:00:40;;;;;;;10.90;8.00;;;;;;;28.50;32.54;96650.56;4972629;28;20488;-67
2021/09/08 11:03:25;;;;;;;9.17;7.70;;;;;;;28.26;33.49;96648.59;4972814;28;20278;-69
2021/09/08 11:05:59;;;;;;;15.97;8.10;;;;;;;28.62;32.85;96647.53;4972205;28;20456;-68
2021/09/08 11:08:32;;;;;;;9.70;7.93;;;;;;;28.86;32.67;96641.41;4972582;28;20420;-67
2021/09/08 11:11:07;;;;;;;8.30;7.50;;;;;;;29.43;32.13;96639.72;4972471;28;20845;-67
2021/09/08 11:13:33;;;;;;;8.70;7.37;;;;;;;29.10;32.04;96636.06;4963080;28;20495;-68
2021/09/08 11:15:58;;;;;;;10.43;7.60;;;;;;;28.24;33.05;96639.22;4970278;28;20446;-69
2021/09/08 11:18:34;;;;;;;8.13;7.17;;;;;;;28.59;32.68;96638.13;4963974;28;20181;-69
2021/09/08 11:21:04;;;;;;;8.43;7.30;;;;;;;29.02;32.36;96633.97;4970937;28;20664;-68
2021/09/08 11:23:30;;;;;;;7.77;6.83;;;;;;;29.15;32.18;96632.50;4958330;28;20956;-69
2021/09/08 11:26:03;;;;;;;12.97;7.10;;;;;;;29.77;30.91;96635.25;4964234;28;20948;-68
2021/09/08 11:28:31;;;;;;;10.03;7.97;;;;;;;29.80;30.40;96629.28;4972169;28;20417;-69
2021/09/08 11:30:56;;;;;;;10.83;7.37;;;;;;;30.12;30.42;96625.06;4970785;28;20543;-68
2021/09/08 11:33:22;;;;;;;12.00;7.20;;;;;;;30.16;30.51;96625.28;4972914;28;20975;-70